sensor_id;sensor_type;location;lat;lon;timestamp;P1;durP1;ratioP1;P2;durP2;ratioP2
15402;SDS011;7799;53.478;10.170;2023-03-11T00:00:34;7.00;;;6.40;;
15402;SDS011;7799;53.478;10.170;2023-03-11T00:03:04;7.80;;;7.00;;
15402;SDS011;7799;53.478;10.170;2023-03-11T00:05:32;6.53;;;5.93;;
15402;SDS011;7799;53.478;10.170;2023-03-11T00:08:00;7.50;;;6.80;;
15402;SDS011;7799;53.478;10.170;2023-03-11T00:10:28;6.20;;;5.63;;
15402;SDS011;7799;53.478;10.170;2023-03-11T00:12:56;6.20;;;5.70;;
15402;SDS011;7799;53.478;10.170;2023-03-11T00:15:22;6.30;;;5.70;;
15402;SDS011;7799;53.478;10.170;2023-03-11T00:17:49;6.93;;;6.33;;
15402;SDS011;7799;53.478;10.170;2023-03-11T00:20:18;7.40;;;6.70;;
15402;SDS011;7799;53.478;10.170;2023-03-11T00:22:46;7.33;;;6.63;;
15402;SDS011;7799;53.478;10.170;2023-03-11T00:25:13;7.67;;;6.87;;
15402;SDS011;7799;53.478;10.170;2023-03-11T00:27:39;7.73;;;7.03;;
15402;SDS011;7799;53.478;10.170;2023-03-11T00:30:07;6.90;;;6.20;;
15402;SDS011;7799;53.478;10.170;2023-03-11T00:32:35;7.63;;;6.93;;
15402;SDS011;7799;53.478;10.170;2023-03-11T00:35:01;7.83;;;7.13;;
15402;SDS011;7799;53.478;10.170;2023-03-11T00:37:30;7.60;;;6.90;;
15402;SDS011;7799;53.478;10.170;2023-03-11T00:39:57;7.10;;;6.40;;
15402;SDS011;7799;53.478;10.170;2023-03-11T00:42:24;7.27;;;6.57;;
15402;SDS011;7799;53.478;10.170;2023-03-11T00:44:51;6.33;;;5.73;;
15402;SDS011;7799;53.478;10.170;2023-03-11T00:47:17;6.70;;;6.10;;
15402;SDS011;7799;53.478;10.170;2023-03-11T00:49:44;7.53;;;6.73;;
15402;SDS011;7799;53.478;10.170;2023-03-11T00:52:11;8.40;;;7.57;;
15402;SDS011;7799;53.478;10.170;2023-03-11T00:54:39;7.43;;;6.73;;
15402;SDS011;7799;53.478;10.170;2023-03-11T00:57:06;8.20;;;7.40;;
15402;SDS011;7799;53.478;10.170;2023-03-11T00:59:33;7.53;;;6.73;;
15402;SDS011;7799;53.478;10.170;2023-03-11T01:02:00;7.90;;;7.10;;
15402;SDS011;7799;53.478;10.170;2023-03-11T01:04:27;7.87;;;7.17;;
15402;SDS011;7799;53.478;10.170;2023-03-11T01:06:53;10.23;;;9.13;;
15402;SDS011;7799;53.478;10.170;2023-03-11T01:09:20;9.63;;;8.73;;
15402;SDS011;7799;53.478;10.170;2023-03-11T01:11:48;9.87;;;8.83;;
15402;SDS011;7799;53.478;10.170;2023-03-11T01:14:15;9.23;;;8.23;;
15402;SDS011;7799;53.478;10.170;2023-03-11T01:16:43;10.73;;;9.63;;
15402;SDS011;7799;53.478;10.170;2023-03-11T01:19:10;10.67;;;9.57;;
15402;SDS011;7799;53.478;10.170;2023-03-11T01:21:37;10.90;;;9.80;;
15402;SDS011;7799;53.478;10.170;2023-03-11T01:24:05;9.33;;;8.43;;
15402;SDS011;7799;53.478;10.170;2023-03-11T01:26:32;10.67;;;9.67;;
15402;SDS011;7799;53.478;10.170;2023-03-11T01:29:00;9.97;;;8.77;;
15402;SDS011;7799;53.478;10.170;2023-03-11T01:31:26;9.53;;;8.63;;
15402;SDS011;7799;53.478;10.170;2023-03-11T01:33:53;9.90;;;8.77;;
15402;SDS011;7799;53.478;10.170;2023-03-11T01:36:20;11.03;;;9.33;;
15402;SDS011;7799;53.478;10.170;2023-03-11T01:38:46;12.37;;;11.10;;
15402;SDS011;7799;53.478;10.170;2023-03-11T01:41:13;11.43;;;9.90;;
15402;SDS011;7799;53.478;10.170;2023-03-11T01:43:46;11.00;;;9.90;;
15402;SDS011;7799;53.478;10.170;2023-03-11T01:46:23;11.50;;;10.40;;
15402;SDS011;7799;53.478;10.170;2023-03-11T01:48:51;9.87;;;8.87;;
15402;SDS011;7799;53.478;10.170;2023-03-11T01:51:20;11.10;;;9.53;;
15402;SDS011;7799;53.478;10.170;2023-03-11T01:53:50;11.00;;;9.90;;
15402;SDS011;7799;53.478;10.170;2023-03-11T01:56:21;10.90;;;9.80;;
15402;SDS011;7799;53.478;10.170;2023-03-11T01:58:49;10.67;;;9.67;;
15402;SDS011;7799;53.478;10.170;2023-03-11T02:01:16;9.83;;;8.93;;
15402;SDS011;7799;53.478;10.170;2023-03-11T02:03:46;9.87;;;8.87;;
15402;SDS011;7799;53.478;10.170;2023-03-11T02:06:14;10.87;;;9.03;;
15402;SDS011;7799;53.478;10.170;2023-03-11T02:08:42;8.50;;;7.70;;
15402;SDS011;7799;53.478;10.170;2023-03-11T02:11:11;8.83;;;8.03;;
15402;SDS011;7799;53.478;10.170;2023-03-11T02:13:41;8.43;;;7.67;;
15402;SDS011;7799;53.478;10.170;2023-03-11T02:16:09;9.47;;;8.53;;
15402;SDS011;7799;53.478;10.170;2023-03-11T02:18:36;7.73;;;6.93;;
15402;SDS011;7799;53.478;10.170;2023-03-11T02:21:07;8.70;;;7.77;;
15402;SDS011;7799;53.478;10.170;2023-03-11T02:23:41;7.07;;;6.37;;
15402;SDS011;7799;53.478;10.170;2023-03-11T02:26:14;8.73;;;7.87;;
15402;SDS011;7799;53.478;10.170;2023-03-11T02:28:45;9.03;;;7.93;;
15402;SDS011;7799;53.478;10.170;2023-03-11T02:31:12;9.10;;;8.20;;
15402;SDS011;7799;53.478;10.170;2023-03-11T02:33:39;10.77;;;9.63;;
15402;SDS011;7799;53.478;10.170;2023-03-11T02:36:11;10.60;;;9.20;;
15402;SDS011;7799;53.478;10.170;2023-03-11T02:38:56;9.80;;;8.83;;
15402;SDS011;7799;53.478;10.170;2023-03-11T02:41:22;10.03;;;8.83;;
15402;SDS011;7799;53.478;10.170;2023-03-11T02:43:50;8.90;;;8.00;;
15402;SDS011;7799;53.478;10.170;2023-03-11T02:46:18;10.87;;;9.70;;
15402;SDS011;7799;53.478;10.170;2023-03-11T02:48:45;10.97;;;9.73;;
15402;SDS011;7799;53.478;10.170;2023-03-11T02:51:12;9.63;;;8.63;;
15402;SDS011;7799;53.478;10.170;2023-03-11T02:53:40;10.83;;;9.73;;
15402;SDS011;7799;53.478;10.170;2023-03-11T02:56:11;9.90;;;8.87;;
15402;SDS011;7799;53.478;10.170;2023-03-11T02:58:38;10.83;;;9.73;;
15402;SDS011;7799;53.478;10.170;2023-03-11T03:01:09;10.47;;;9.37;;
15402;SDS011;7799;53.478;10.170;2023-03-11T03:03:37;8.47;;;7.67;;
15402;SDS011;7799;53.478;10.170;2023-03-11T03:06:04;8.50;;;7.70;;
15402;SDS011;7799;53.478;10.170;2023-03-11T03:08:31;8.67;;;7.77;;
15402;SDS011;7799;53.478;10.170;2023-03-11T03:10:58;8.03;;;7.17;;
15402;SDS011;7799;53.478;10.170;2023-03-11T03:13:25;7.23;;;6.53;;
15402;SDS011;7799;53.478;10.170;2023-03-11T03:15:53;8.47;;;7.57;;
15402;SDS011;7799;53.478;10.170;2023-03-11T03:18:24;7.43;;;6.50;;
15402;SDS011;7799;53.478;10.170;2023-03-11T03:20:53;10.10;;;8.40;;
15402;SDS011;7799;53.478;10.170;2023-03-11T03:23:20;9.43;;;8.50;;
15402;SDS011;7799;53.478;10.170;2023-03-11T03:25:46;9.27;;;8.37;;
15402;SDS011;7799;53.478;10.170;2023-03-11T03:28:13;9.30;;;8.30;;
15402;SDS011;7799;53.478;10.170;2023-03-11T03:30:43;8.43;;;7.63;;
15402;SDS011;7799;53.478;10.170;2023-03-11T03:33:11;8.20;;;7.40;;
15402;SDS011;7799;53.478;10.170;2023-03-11T03:35:40;7.70;;;6.80;;
15402;SDS011;7799;53.478;10.170;2023-03-11T03:38:17;8.57;;;7.13;;
15402;SDS011;7799;53.478;10.170;2023-03-11T03:40:44;9.50;;;8.50;;
15402;SDS011;7799;53.478;10.170;2023-03-11T03:43:13;7.43;;;6.73;;
15402;SDS011;7799;53.478;10.170;2023-03-11T03:45:42;7.10;;;6.50;;
15402;SDS011;7799;53.478;10.170;2023-03-11T03:48:09;8.07;;;7.27;;
15402;SDS011;7799;53.478;10.170;2023-03-11T03:50:41;7.97;;;7.17;;
15402;SDS011;7799;53.478;10.170;2023-03-11T03:53:11;7.27;;;6.47;;
15402;SDS011;7799;53.478;10.170;2023-03-11T03:55:39;8.13;;;7.30;;
15402;SDS011;7799;53.478;10.170;2023-03-11T03:58:05;7.27;;;6.57;;
15402;SDS011;7799;53.478;10.170;2023-03-11T04:00:34;8.43;;;7.57;;
15402;SDS011;7799;53.478;10.170;2023-03-11T04:03:01;7.40;;;6.70;;
15402;SDS011;7799;53.478;10.170;2023-03-11T04:05:39;6.30;;;5.70;;
15402;SDS011;7799;53.478;10.170;2023-03-11T04:08:07;7.80;;;7.00;;
15402;SDS011;7799;53.478;10.170;2023-03-11T04:10:34;7.17;;;6.47;;
15402;SDS011;7799;53.478;10.170;2023-03-11T04:13:01;7.43;;;6.63;;
15402;SDS011;7799;53.478;10.170;2023-03-11T04:15:28;7.07;;;6.37;;
15402;SDS011;7799;53.478;10.170;2023-03-11T04:17:55;8.67;;;6.67;;
15402;SDS011;7799;53.478;10.170;2023-03-11T04:20:22;7.80;;;6.97;;
15402;SDS011;7799;53.478;10.170;2023-03-11T04:22:50;7.60;;;6.70;;
15402;SDS011;7799;53.478;10.170;2023-03-11T04:25:21;6.40;;;5.80;;
15402;SDS011;7799;53.478;10.170;2023-03-11T04:27:48;6.10;;;5.50;;
15402;SDS011;7799;53.478;10.170;2023-03-11T04:30:17;6.97;;;6.37;;
15402;SDS011;7799;53.478;10.170;2023-03-11T04:32:46;6.87;;;6.23;;
15402;SDS011;7799;53.478;10.170;2023-03-11T04:35:13;7.47;;;6.67;;
15402;SDS011;7799;53.478;10.170;2023-03-11T04:37:40;7.17;;;6.47;;
15402;SDS011;7799;53.478;10.170;2023-03-11T04:40:07;6.87;;;6.17;;
15402;SDS011;7799;53.478;10.170;2023-03-11T04:42:36;8.10;;;7.27;;
15402;SDS011;7799;53.478;10.170;2023-03-11T04:45:04;8.10;;;7.30;;
15402;SDS011;7799;53.478;10.170;2023-03-11T04:47:31;8.00;;;7.20;;
15402;SDS011;7799;53.478;10.170;2023-03-11T04:49:58;7.00;;;6.30;;
15402;SDS011;7799;53.478;10.170;2023-03-11T04:52:25;6.40;;;5.80;;
15402;SDS011;7799;53.478;10.170;2023-03-11T04:54:52;6.27;;;5.67;;
15402;SDS011;7799;53.478;10.170;2023-03-11T04:57:19;5.87;;;5.27;;
15402;SDS011;7799;53.478;10.170;2023-03-11T04:59:48;5.63;;;5.13;;
15402;SDS011;7799;53.478;10.170;2023-03-11T05:02:14;6.00;;;5.40;;
15402;SDS011;7799;53.478;10.170;2023-03-11T05:04:49;6.43;;;5.83;;
15402;SDS011;7799;53.478;10.170;2023-03-11T05:07:16;6.30;;;5.70;;
15402;SDS011;7799;53.478;10.170;2023-03-11T05:09:43;5.90;;;5.40;;
15402;SDS011;7799;53.478;10.170;2023-03-11T05:12:10;5.33;;;4.83;;
15402;SDS011;7799;53.478;10.170;2023-03-11T05:14:39;6.27;;;5.67;;
15402;SDS011;7799;53.478;10.170;2023-03-11T05:17:07;5.63;;;5.03;;
15402;SDS011;7799;53.478;10.170;2023-03-11T05:19:34;5.73;;;5.23;;
15402;SDS011;7799;53.478;10.170;2023-03-11T05:22:14;6.20;;;5.60;;
15402;SDS011;7799;53.478;10.170;2023-03-11T05:24:41;5.63;;;4.83;;
15402;SDS011;7799;53.478;10.170;2023-03-11T05:27:07;7.43;;;6.10;;
15402;SDS011;7799;53.478;10.170;2023-03-11T05:29:36;6.13;;;5.53;;
15402;SDS011;7799;53.478;10.170;2023-03-11T05:32:04;7.97;;;6.67;;
15402;SDS011;7799;53.478;10.170;2023-03-11T05:34:33;6.80;;;6.10;;
15402;SDS011;7799;53.478;10.170;2023-03-11T05:36:59;6.50;;;5.90;;
15402;SDS011;7799;53.478;10.170;2023-03-11T05:39:27;6.47;;;5.87;;
15402;SDS011;7799;53.478;10.170;2023-03-11T05:41:55;6.13;;;5.60;;
15402;SDS011;7799;53.478;10.170;2023-03-11T05:44:23;6.33;;;5.70;;
15402;SDS011;7799;53.478;10.170;2023-03-11T05:46:50;6.47;;;5.47;;
15402;SDS011;7799;53.478;10.170;2023-03-11T05:49:16;5.57;;;5.07;;
15402;SDS011;7799;53.478;10.170;2023-03-11T05:51:47;5.47;;;4.97;;
15402;SDS011;7799;53.478;10.170;2023-03-11T05:54:14;6.40;;;5.70;;
15402;SDS011;7799;53.478;10.170;2023-03-11T05:56:45;7.93;;;6.70;;
15402;SDS011;7799;53.478;10.170;2023-03-11T05:59:13;8.00;;;7.20;;
15402;SDS011;7799;53.478;10.170;2023-03-11T06:01:41;7.40;;;6.67;;
15402;SDS011;7799;53.478;10.170;2023-03-11T06:04:09;8.63;;;7.23;;
15402;SDS011;7799;53.478;10.170;2023-03-11T06:06:37;8.43;;;7.03;;
15402;SDS011;7799;53.478;10.170;2023-03-11T06:09:05;7.10;;;6.40;;
15402;SDS011;7799;53.478;10.170;2023-03-11T06:11:32;8.07;;;7.20;;
15402;SDS011;7799;53.478;10.170;2023-03-11T06:13:59;7.73;;;6.93;;
15402;SDS011;7799;53.478;10.170;2023-03-11T06:16:27;6.77;;;6.03;;
15402;SDS011;7799;53.478;10.170;2023-03-11T06:18:57;5.87;;;5.27;;
15402;SDS011;7799;53.478;10.170;2023-03-11T06:21:28;6.77;;;6.07;;
15402;SDS011;7799;53.478;10.170;2023-03-11T06:23:55;5.23;;;4.73;;
15402;SDS011;7799;53.478;10.170;2023-03-11T06:26:23;6.73;;;5.80;;
15402;SDS011;7799;53.478;10.170;2023-03-11T06:28:50;6.37;;;5.77;;
15402;SDS011;7799;53.478;10.170;2023-03-11T06:31:18;6.13;;;5.30;;
15402;SDS011;7799;53.478;10.170;2023-03-11T06:33:46;5.73;;;5.17;;
15402;SDS011;7799;53.478;10.170;2023-03-11T06:36:13;5.00;;;4.50;;
15402;SDS011;7799;53.478;10.170;2023-03-11T06:38:42;4.90;;;4.40;;
15402;SDS011;7799;53.478;10.170;2023-03-11T06:41:09;6.10;;;5.10;;
15402;SDS011;7799;53.478;10.170;2023-03-11T06:43:37;5.57;;;5.03;;
15402;SDS011;7799;53.478;10.170;2023-03-11T06:46:07;4.37;;;3.97;;
15402;SDS011;7799;53.478;10.170;2023-03-11T06:48:35;4.77;;;4.27;;
15402;SDS011;7799;53.478;10.170;2023-03-11T06:51:02;5.30;;;4.30;;
15402;SDS011;7799;53.478;10.170;2023-03-11T06:53:31;4.80;;;4.33;;
15402;SDS011;7799;53.478;10.170;2023-03-11T06:56:02;4.57;;;4.17;;
15402;SDS011;7799;53.478;10.170;2023-03-11T06:58:37;4.20;;;3.80;;
15402;SDS011;7799;53.478;10.170;2023-03-11T07:01:05;3.97;;;3.60;;
15402;SDS011;7799;53.478;10.170;2023-03-11T07:03:33;3.30;;;2.80;;
15402;SDS011;7799;53.478;10.170;2023-03-11T07:06:00;3.53;;;3.10;;
15402;SDS011;7799;53.478;10.170;2023-03-11T07:08:26;3.80;;;3.40;;
15402;SDS011;7799;53.478;10.170;2023-03-11T07:11:02;4.00;;;3.60;;
15402;SDS011;7799;53.478;10.170;2023-03-11T07:13:31;4.13;;;3.73;;
15402;SDS011;7799;53.478;10.170;2023-03-11T07:16:00;5.27;;;4.77;;
15402;SDS011;7799;53.478;10.170;2023-03-11T07:18:28;6.20;;;5.60;;
15402;SDS011;7799;53.478;10.170;2023-03-11T07:20:55;7.17;;;5.67;;
15402;SDS011;7799;53.478;10.170;2023-03-11T07:23:21;8.27;;;6.67;;
15402;SDS011;7799;53.478;10.170;2023-03-11T07:25:48;8.43;;;7.30;;
15402;SDS011;7799;53.478;10.170;2023-03-11T07:28:16;6.67;;;6.07;;
15402;SDS011;7799;53.478;10.170;2023-03-11T07:30:42;6.90;;;6.20;;
15402;SDS011;7799;53.478;10.170;2023-03-11T07:33:12;7.33;;;6.50;;
15402;SDS011;7799;53.478;10.170;2023-03-11T07:35:38;7.50;;;6.33;;
15402;SDS011;7799;53.478;10.170;2023-03-11T07:38:05;9.07;;;6.93;;
15402;SDS011;7799;53.478;10.170;2023-03-11T07:40:32;8.03;;;6.17;;
15402;SDS011;7799;53.478;10.170;2023-03-11T07:42:59;9.20;;;7.60;;
15402;SDS011;7799;53.478;10.170;2023-03-11T07:45:25;8.70;;;7.23;;
15402;SDS011;7799;53.478;10.170;2023-03-11T07:47:52;9.00;;;8.10;;
15402;SDS011;7799;53.478;10.170;2023-03-11T07:50:20;9.20;;;7.90;;
15402;SDS011;7799;53.478;10.170;2023-03-11T07:52:47;8.73;;;7.83;;
15402;SDS011;7799;53.478;10.170;2023-03-11T07:55:14;8.40;;;7.00;;
15402;SDS011;7799;53.478;10.170;2023-03-11T07:57:40;7.60;;;6.80;;
15402;SDS011;7799;53.478;10.170;2023-03-11T08:00:08;8.80;;;7.57;;
15402;SDS011;7799;53.478;10.170;2023-03-11T08:02:39;8.07;;;6.70;;
15402;SDS011;7799;53.478;10.170;2023-03-11T08:05:06;7.40;;;6.67;;
15402;SDS011;7799;53.478;10.170;2023-03-11T08:07:34;8.20;;;7.40;;
15402;SDS011;7799;53.478;10.170;2023-03-11T08:10:01;8.00;;;7.17;;
15402;SDS011;7799;53.478;10.170;2023-03-11T08:12:30;6.53;;;5.83;;
15402;SDS011;7799;53.478;10.170;2023-03-11T08:14:57;6.83;;;6.07;;
15402;SDS011;7799;53.478;10.170;2023-03-11T08:17:24;6.43;;;5.83;;
15402;SDS011;7799;53.478;10.170;2023-03-11T08:19:50;6.37;;;5.77;;
15402;SDS011;7799;53.478;10.170;2023-03-11T08:22:17;5.83;;;5.07;;
15402;SDS011;7799;53.478;10.170;2023-03-11T08:24:48;5.97;;;5.37;;
15402;SDS011;7799;53.478;10.170;2023-03-11T08:27:16;5.43;;;4.93;;
15402;SDS011;7799;53.478;10.170;2023-03-11T08:29:42;5.33;;;4.83;;
15402;SDS011;7799;53.478;10.170;2023-03-11T08:32:09;5.60;;;4.80;;
15402;SDS011;7799;53.478;10.170;2023-03-11T08:34:36;4.97;;;4.50;;
15402;SDS011;7799;53.478;10.170;2023-03-11T08:37:03;5.50;;;5.00;;
15402;SDS011;7799;53.478;10.170;2023-03-11T08:39:30;5.20;;;4.70;;
15402;SDS011;7799;53.478;10.170;2023-03-11T08:41:58;5.53;;;5.03;;
15402;SDS011;7799;53.478;10.170;2023-03-11T08:44:25;5.17;;;4.77;;
15402;SDS011;7799;53.478;10.170;2023-03-11T08:46:51;5.17;;;4.30;;
15402;SDS011;7799;53.478;10.170;2023-03-11T08:49:18;5.27;;;4.43;;
15402;SDS011;7799;53.478;10.170;2023-03-11T08:51:45;5.53;;;5.03;;
15402;SDS011;7799;53.478;10.170;2023-03-11T08:54:11;4.97;;;4.57;;
15402;SDS011;7799;53.478;10.170;2023-03-11T08:56:38;5.03;;;4.53;;
15402;SDS011;7799;53.478;10.170;2023-03-11T08:59:06;4.63;;;4.10;;
15402;SDS011;7799;53.478;10.170;2023-03-11T09:01:33;5.70;;;5.10;;
15402;SDS011;7799;53.478;10.170;2023-03-11T09:03:59;4.40;;;4.00;;
15402;SDS011;7799;53.478;10.170;2023-03-11T09:06:26;4.50;;;4.10;;
15402;SDS011;7799;53.478;10.170;2023-03-11T09:08:54;4.77;;;4.37;;
15402;SDS011;7799;53.478;10.170;2023-03-11T09:11:21;4.77;;;4.30;;
15402;SDS011;7799;53.478;10.170;2023-03-11T09:13:47;4.57;;;4.17;;
15402;SDS011;7799;53.478;10.170;2023-03-11T09:16:16;4.53;;;4.10;;
15402;SDS011;7799;53.478;10.170;2023-03-11T09:18:44;4.17;;;3.77;;
15402;SDS011;7799;53.478;10.170;2023-03-11T09:21:11;4.40;;;3.97;;
15402;SDS011;7799;53.478;10.170;2023-03-11T09:23:38;4.20;;;3.90;;
15402;SDS011;7799;53.478;10.170;2023-03-11T09:26:05;3.70;;;3.40;;
15402;SDS011;7799;53.478;10.170;2023-03-11T09:28:32;3.73;;;3.30;;
15402;SDS011;7799;53.478;10.170;2023-03-11T09:30:58;3.10;;;2.90;;
15402;SDS011;7799;53.478;10.170;2023-03-11T09:33:26;3.60;;;3.30;;
15402;SDS011;7799;53.478;10.170;2023-03-11T09:35:53;3.40;;;3.07;;
15402;SDS011;7799;53.478;10.170;2023-03-11T09:38:20;3.07;;;2.77;;
15402;SDS011;7799;53.478;10.170;2023-03-11T09:40:51;2.40;;;2.20;;
15402;SDS011;7799;53.478;10.170;2023-03-11T09:43:27;3.10;;;2.80;;
15402;SDS011;7799;53.478;10.170;2023-03-11T09:46:03;2.73;;;2.53;;
15402;SDS011;7799;53.478;10.170;2023-03-11T09:48:35;2.80;;;2.60;;
15402;SDS011;7799;53.478;10.170;2023-03-11T09:51:04;3.23;;;2.57;;
15402;SDS011;7799;53.478;10.170;2023-03-11T09:53:35;2.53;;;2.20;;
15402;SDS011;7799;53.478;10.170;2023-03-11T09:56:05;2.70;;;2.50;;
15402;SDS011;7799;53.478;10.170;2023-03-11T09:58:36;2.77;;;2.57;;
15402;SDS011;7799;53.478;10.170;2023-03-11T10:01:07;2.50;;;2.20;;
15402;SDS011;7799;53.478;10.170;2023-03-11T10:03:41;2.43;;;2.23;;
15402;SDS011;7799;53.478;10.170;2023-03-11T10:06:13;2.73;;;2.10;;
15402;SDS011;7799;53.478;10.170;2023-03-11T10:08:51;2.63;;;2.20;;
15402;SDS011;7799;53.478;10.170;2023-03-11T10:11:28;2.63;;;2.23;;
15402;SDS011;7799;53.478;10.170;2023-03-11T10:14:07;2.63;;;2.00;;
15402;SDS011;7799;53.478;10.170;2023-03-11T10:16:40;2.10;;;2.00;;
15402;SDS011;7799;53.478;10.170;2023-03-11T10:19:14;2.00;;;1.80;;
15402;SDS011;7799;53.478;10.170;2023-03-11T10:21:48;2.77;;;2.10;;
15402;SDS011;7799;53.478;10.170;2023-03-11T10:24:22;3.17;;;2.80;;
15402;SDS011;7799;53.478;10.170;2023-03-11T10:27:00;4.93;;;2.80;;
15402;SDS011;7799;53.478;10.170;2023-03-11T10:29:29;2.73;;;2.53;;
15402;SDS011;7799;53.478;10.170;2023-03-11T10:31:56;3.03;;;2.73;;
15402;SDS011;7799;53.478;10.170;2023-03-11T10:34:29;2.70;;;2.50;;
15402;SDS011;7799;53.478;10.170;2023-03-11T10:37:03;2.80;;;2.60;;
15402;SDS011;7799;53.478;10.170;2023-03-11T10:39:32;2.70;;;2.50;;
15402;SDS011;7799;53.478;10.170;2023-03-11T10:41:59;2.90;;;2.70;;
15402;SDS011;7799;53.478;10.170;2023-03-11T10:44:28;3.10;;;2.90;;
15402;SDS011;7799;53.478;10.170;2023-03-11T10:46:57;2.17;;;1.97;;
15402;SDS011;7799;53.478;10.170;2023-03-11T10:49:24;3.17;;;2.83;;
15402;SDS011;7799;53.478;10.170;2023-03-11T10:51:52;2.57;;;2.37;;
15402;SDS011;7799;53.478;10.170;2023-03-11T10:54:21;2.37;;;2.20;;
15402;SDS011;7799;53.478;10.170;2023-03-11T10:56:53;2.30;;;2.10;;
15402;SDS011;7799;53.478;10.170;2023-03-11T10:59:22;2.00;;;1.90;;
15402;SDS011;7799;53.478;10.170;2023-03-11T11:01:52;1.93;;;1.83;;
15402;SDS011;7799;53.478;10.170;2023-03-11T11:04:26;2.00;;;1.90;;
15402;SDS011;7799;53.478;10.170;2023-03-11T11:06:56;2.40;;;2.20;;
15402;SDS011;7799;53.478;10.170;2023-03-11T11:09:24;1.90;;;1.80;;
15402;SDS011;7799;53.478;10.170;2023-03-11T11:12:05;3.07;;;1.97;;
15402;SDS011;7799;53.478;10.170;2023-03-11T11:14:41;2.00;;;1.80;;
15402;SDS011;7799;53.478;10.170;2023-03-11T11:17:20;1.70;;;1.57;;
15402;SDS011;7799;53.478;10.170;2023-03-11T11:19:48;2.40;;;2.20;;
15402;SDS011;7799;53.478;10.170;2023-03-11T11:22:18;2.50;;;2.10;;
15402;SDS011;7799;53.478;10.170;2023-03-11T11:24:46;2.90;;;2.47;;
15402;SDS011;7799;53.478;10.170;2023-03-11T11:27:16;2.37;;;2.10;;
15402;SDS011;7799;53.478;10.170;2023-03-11T11:29:43;2.43;;;2.23;;
15402;SDS011;7799;53.478;10.170;2023-03-11T11:34:58;2.90;;;2.13;;
15402;SDS011;7799;53.478;10.170;2023-03-11T11:37:28;2.60;;;2.40;;
15402;SDS011;7799;53.478;10.170;2023-03-11T11:40:00;1.90;;;1.80;;
15402;SDS011;7799;53.478;10.170;2023-03-11T11:42:34;2.53;;;1.90;;
15402;SDS011;7799;53.478;10.170;2023-03-11T11:45:03;2.20;;;2.10;;
15402;SDS011;7799;53.478;10.170;2023-03-11T11:47:35;1.83;;;1.73;;
15402;SDS011;7799;53.478;10.170;2023-03-11T11:50:04;2.47;;;2.27;;
15402;SDS011;7799;53.478;10.170;2023-03-11T11:52:35;2.47;;;2.27;;
15402;SDS011;7799;53.478;10.170;2023-03-11T11:55:03;2.03;;;1.90;;
15402;SDS011;7799;53.478;10.170;2023-03-11T11:57:32;2.17;;;1.80;;
15402;SDS011;7799;53.478;10.170;2023-03-11T12:00:00;2.00;;;1.90;;
15402;SDS011;7799;53.478;10.170;2023-03-11T12:02:41;1.90;;;1.80;;
15402;SDS011;7799;53.478;10.170;2023-03-11T12:05:15;1.80;;;1.70;;
15402;SDS011;7799;53.478;10.170;2023-03-11T12:07:53;2.37;;;2.10;;
15402;SDS011;7799;53.478;10.170;2023-03-11T12:10:26;2.30;;;2.10;;
15402;SDS011;7799;53.478;10.170;2023-03-11T12:15:57;2.23;;;2.03;;
15402;SDS011;7799;53.478;10.170;2023-03-11T12:18:27;2.27;;;1.90;;
15402;SDS011;7799;53.478;10.170;2023-03-11T12:20:55;2.00;;;1.60;;
15402;SDS011;7799;53.478;10.170;2023-03-11T12:23:26;2.20;;;1.57;;
15402;SDS011;7799;53.478;10.170;2023-03-11T12:26:00;1.63;;;1.53;;
15402;SDS011;7799;53.478;10.170;2023-03-11T12:28:37;1.30;;;1.20;;
15402;SDS011;7799;53.478;10.170;2023-03-11T12:31:07;2.77;;;1.73;;
15402;SDS011;7799;53.478;10.170;2023-03-11T12:33:35;2.03;;;1.33;;
15402;SDS011;7799;53.478;10.170;2023-03-11T12:36:04;1.30;;;1.20;;
15402;SDS011;7799;53.478;10.170;2023-03-11T12:38:32;1.60;;;1.50;;
15402;SDS011;7799;53.478;10.170;2023-03-11T12:41:06;2.10;;;1.63;;
15402;SDS011;7799;53.478;10.170;2023-03-11T12:49:44;2.00;;;1.90;;
15402;SDS011;7799;53.478;10.170;2023-03-11T12:52:16;2.10;;;2.00;;
15402;SDS011;7799;53.478;10.170;2023-03-11T12:54:47;1.87;;;1.77;;
15402;SDS011;7799;53.478;10.170;2023-03-11T12:57:31;2.53;;;1.83;;
15402;SDS011;7799;53.478;10.170;2023-03-11T13:02:54;1.70;;;1.60;;
15402;SDS011;7799;53.478;10.170;2023-03-11T13:05:40;2.10;;;1.90;;
15402;SDS011;7799;53.478;10.170;2023-03-11T13:08:23;1.60;;;1.50;;
15402;SDS011;7799;53.478;10.170;2023-03-11T13:10:53;1.87;;;1.77;;
15402;SDS011;7799;53.478;10.170;2023-03-11T13:13:21;1.47;;;1.30;;
15402;SDS011;7799;53.478;10.170;2023-03-11T13:15:48;1.73;;;1.63;;
15402;SDS011;7799;53.478;10.170;2023-03-11T13:18:16;1.63;;;1.40;;
15402;SDS011;7799;53.478;10.170;2023-03-11T13:20:46;1.63;;;1.50;;
15402;SDS011;7799;53.478;10.170;2023-03-11T13:23:25;1.83;;;1.43;;
15402;SDS011;7799;53.478;10.170;2023-03-11T13:26:03;1.40;;;1.30;;
15402;SDS011;7799;53.478;10.170;2023-03-11T13:28:40;3.00;;;1.60;;
15402;SDS011;7799;53.478;10.170;2023-03-11T13:31:21;2.47;;;1.40;;
15402;SDS011;7799;53.478;10.170;2023-03-11T13:33:59;2.17;;;1.30;;
15402;SDS011;7799;53.478;10.170;2023-03-11T13:36:36;1.40;;;1.30;;
15402;SDS011;7799;53.478;10.170;2023-03-11T13:39:19;1.20;;;1.10;;
15402;SDS011;7799;53.478;10.170;2023-03-11T13:41:51;1.47;;;1.37;;
15402;SDS011;7799;53.478;10.170;2023-03-11T13:44:23;1.80;;;1.20;;
15402;SDS011;7799;53.478;10.170;2023-03-11T13:46:54;1.17;;;1.13;;
15402;SDS011;7799;53.478;10.170;2023-03-11T13:49:25;1.73;;;1.50;;
15402;SDS011;7799;53.478;10.170;2023-03-11T13:51:56;1.33;;;1.20;;
15402;SDS011;7799;53.478;10.170;2023-03-11T13:54:31;1.30;;;1.20;;
15402;SDS011;7799;53.478;10.170;2023-03-11T13:57:03;1.37;;;1.30;;
15402;SDS011;7799;53.478;10.170;2023-03-11T13:59:30;1.50;;;1.40;;
15402;SDS011;7799;53.478;10.170;2023-03-11T14:01:59;1.53;;;1.40;;
15402;SDS011;7799;53.478;10.170;2023-03-11T14:04:28;2.67;;;1.60;;
15402;SDS011;7799;53.478;10.170;2023-03-11T14:06:55;1.90;;;1.33;;
15402;SDS011;7799;53.478;10.170;2023-03-11T14:09:23;1.30;;;1.20;;
15402;SDS011;7799;53.478;10.170;2023-03-11T14:11:51;1.27;;;1.17;;
15402;SDS011;7799;53.478;10.170;2023-03-11T14:14:26;1.57;;;1.20;;
15402;SDS011;7799;53.478;10.170;2023-03-11T14:16:57;1.77;;;1.37;;
15402;SDS011;7799;53.478;10.170;2023-03-11T14:19:26;1.60;;;1.50;;
15402;SDS011;7799;53.478;10.170;2023-03-11T14:21:52;1.43;;;1.10;;
15402;SDS011;7799;53.478;10.170;2023-03-11T14:24:21;1.50;;;1.10;;
15402;SDS011;7799;53.478;10.170;2023-03-11T14:26:48;1.20;;;1.10;;
15402;SDS011;7799;53.478;10.170;2023-03-11T14:29:19;1.67;;;1.30;;
15402;SDS011;7799;53.478;10.170;2023-03-11T14:31:56;2.27;;;1.40;;
15402;SDS011;7799;53.478;10.170;2023-03-11T14:34:23;1.83;;;1.40;;
15402;SDS011;7799;53.478;10.170;2023-03-11T14:36:53;2.10;;;1.90;;
15402;SDS011;7799;53.478;10.170;2023-03-11T14:39:28;1.50;;;1.40;;
15402;SDS011;7799;53.478;10.170;2023-03-11T14:41:56;1.50;;;1.40;;
15402;SDS011;7799;53.478;10.170;2023-03-11T14:44:25;1.53;;;1.43;;
15402;SDS011;7799;53.478;10.170;2023-03-11T14:46:54;2.17;;;1.50;;
15402;SDS011;7799;53.478;10.170;2023-03-11T14:49:26;1.20;;;1.10;;
15402;SDS011;7799;53.478;10.170;2023-03-11T14:51:54;1.43;;;1.30;;
15402;SDS011;7799;53.478;10.170;2023-03-11T14:54:24;1.27;;;1.17;;
15402;SDS011;7799;53.478;10.170;2023-03-11T14:56:53;1.30;;;1.20;;
15402;SDS011;7799;53.478;10.170;2023-03-11T14:59:24;1.23;;;1.20;;
15402;SDS011;7799;53.478;10.170;2023-03-11T15:01:52;1.50;;;1.40;;
15402;SDS011;7799;53.478;10.170;2023-03-11T15:04:23;1.93;;;1.40;;
15402;SDS011;7799;53.478;10.170;2023-03-11T15:06:56;1.40;;;1.30;;
15402;SDS011;7799;53.478;10.170;2023-03-11T15:09:22;2.40;;;1.33;;
15402;SDS011;7799;53.478;10.170;2023-03-11T15:11:50;1.40;;;1.30;;